LYTV/TIV METAR and TAF weather

Enter ICAO airport designator
Station Type Date Time Source
LYTV METAR 2018/12/17 16:30 UTC NOAA

LYTV 171630Z 04007G17KT 9999 BKN056 09/02 Q1012 NOSIG


Station Type Date Time Source
LYTV Decoded METAR 2018/12/17 16:30 UTC NOAA

Tivat, Serbia and Montenegro (LYTV) 42-24N 018-44E 5M
Dec 17, 2018 - 11:30 AM EST / 2018.12.17 1630 UTC
Wind: from the NE (040 degrees) at 8 MPH (7 KT) gusting to 20 MPH (17 KT):0
Visibility: greater than 7 mile(s):0
Sky conditions: mostly cloudy
Temperature: 48 F (9 C)
Dew Point: 35 F (2 C)
Relative Humidity: 61%
Pressure (altimeter): 29.88 in. Hg (1012 hPa)
ob: LYTV 171630Z 04007G17KT 9999 BKN056 09/02 Q1012 NOSIG
cycle: 16

Station Type Date Time Source
LYTV TAF 2018/12/17 12:21 UTC NOAA

TAF LYTV 171100Z 1712/1812 04008KT 9999 SCT040 OVC080 TX08/1712Z TN04/1804Z
TEMPO 1712/1718 5000 RA
BECMG 1715/1717 02015G25KT


Example: see airport list